sensor_id;sensor_type;location;lat;lon;timestamp;P1;durP1;ratioP1;P2;durP2;ratioP2
5833;SDS011;2943;48.012;10.968;2023-02-26T00:00:09;7.83;;;6.77;;
5833;SDS011;2943;48.012;10.968;2023-02-26T00:02:39;7.87;;;6.80;;
5833;SDS011;2943;48.012;10.968;2023-02-26T00:05:09;9.53;;;6.60;;
5833;SDS011;2943;48.012;10.968;2023-02-26T00:07:36;9.40;;;6.83;;
5833;SDS011;2943;48.012;10.968;2023-02-26T00:10:04;12.13;;;7.60;;
5833;SDS011;2943;48.012;10.968;2023-02-26T00:12:32;10.60;;;7.60;;
5833;SDS011;2943;48.012;10.968;2023-02-26T00:15:00;7.53;;;6.20;;
5833;SDS011;2943;48.012;10.968;2023-02-26T00:17:35;7.53;;;6.40;;
5833;SDS011;2943;48.012;10.968;2023-02-26T00:20:07;9.90;;;7.67;;
5833;SDS011;2943;48.012;10.968;2023-02-26T00:22:36;8.70;;;6.63;;
5833;SDS011;2943;48.012;10.968;2023-02-26T00:25:03;11.00;;;6.10;;
5833;SDS011;2943;48.012;10.968;2023-02-26T00:27:30;7.93;;;6.07;;
5833;SDS011;2943;48.012;10.968;2023-02-26T00:29:57;8.13;;;5.90;;
5833;SDS011;2943;48.012;10.968;2023-02-26T00:32:25;7.47;;;6.20;;
5833;SDS011;2943;48.012;10.968;2023-02-26T00:34:54;10.57;;;6.23;;
5833;SDS011;2943;48.012;10.968;2023-02-26T00:37:24;6.80;;;6.10;;
5833;SDS011;2943;48.012;10.968;2023-02-26T00:40:07;6.63;;;5.90;;
5833;SDS011;2943;48.012;10.968;2023-02-26T00:42:41;9.53;;;6.17;;
5833;SDS011;2943;48.012;10.968;2023-02-26T00:45:08;8.27;;;6.03;;
5833;SDS011;2943;48.012;10.968;2023-02-26T00:47:38;9.10;;;5.90;;
5833;SDS011;2943;48.012;10.968;2023-02-26T00:50:13;7.87;;;5.53;;
5833;SDS011;2943;48.012;10.968;2023-02-26T00:52:45;6.63;;;5.27;;
5833;SDS011;2943;48.012;10.968;2023-02-26T00:55:18;7.60;;;5.50;;
5833;SDS011;2943;48.012;10.968;2023-02-26T00:57:44;5.90;;;5.20;;
5833;SDS011;2943;48.012;10.968;2023-02-26T01:00:12;6.40;;;5.63;;
5833;SDS011;2943;48.012;10.968;2023-02-26T01:02:39;5.80;;;5.10;;
5833;SDS011;2943;48.012;10.968;2023-02-26T01:05:07;8.00;;;5.97;;
5833;SDS011;2943;48.012;10.968;2023-02-26T01:07:39;9.40;;;5.47;;
5833;SDS011;2943;48.012;10.968;2023-02-26T01:10:09;9.60;;;5.27;;
5833;SDS011;2943;48.012;10.968;2023-02-26T01:12:37;6.40;;;5.20;;
5833;SDS011;2943;48.012;10.968;2023-02-26T01:15:05;8.43;;;5.20;;
5833;SDS011;2943;48.012;10.968;2023-02-26T01:17:34;5.80;;;5.20;;
5833;SDS011;2943;48.012;10.968;2023-02-26T01:20:08;5.00;;;4.50;;
5833;SDS011;2943;48.012;10.968;2023-02-26T01:22:41;5.53;;;4.00;;
5833;SDS011;2943;48.012;10.968;2023-02-26T01:25:15;4.20;;;3.80;;
5833;SDS011;2943;48.012;10.968;2023-02-26T01:27:44;4.23;;;3.17;;
5833;SDS011;2943;48.012;10.968;2023-02-26T01:30:12;2.90;;;2.70;;
5833;SDS011;2943;48.012;10.968;2023-02-26T01:32:41;3.30;;;3.10;;
5833;SDS011;2943;48.012;10.968;2023-02-26T01:35:14;3.73;;;2.87;;
5833;SDS011;2943;48.012;10.968;2023-02-26T01:37:52;3.20;;;3.00;;
5833;SDS011;2943;48.012;10.968;2023-02-26T01:40:30;3.30;;;3.00;;
5833;SDS011;2943;48.012;10.968;2023-02-26T01:43:02;3.13;;;2.93;;
5833;SDS011;2943;48.012;10.968;2023-02-26T01:45:34;7.60;;;3.40;;
5833;SDS011;2943;48.012;10.968;2023-02-26T01:48:05;8.17;;;4.40;;
5833;SDS011;2943;48.012;10.968;2023-02-26T01:50:36;4.93;;;3.87;;
5833;SDS011;2943;48.012;10.968;2023-02-26T01:53:19;4.70;;;3.67;;
5833;SDS011;2943;48.012;10.968;2023-02-26T01:55:49;3.60;;;3.30;;
5833;SDS011;2943;48.012;10.968;2023-02-26T01:58:19;4.20;;;3.50;;
5833;SDS011;2943;48.012;10.968;2023-02-26T02:00:47;4.43;;;3.43;;
5833;SDS011;2943;48.012;10.968;2023-02-26T02:03:14;3.43;;;3.13;;
5833;SDS011;2943;48.012;10.968;2023-02-26T02:05:42;3.77;;;3.47;;
5833;SDS011;2943;48.012;10.968;2023-02-26T02:08:12;4.00;;;3.53;;
5833;SDS011;2943;48.012;10.968;2023-02-26T02:10:41;3.67;;;3.37;;
5833;SDS011;2943;48.012;10.968;2023-02-26T02:13:13;4.17;;;3.77;;
5833;SDS011;2943;48.012;10.968;2023-02-26T02:15:48;6.33;;;3.60;;
5833;SDS011;2943;48.012;10.968;2023-02-26T02:18:24;5.30;;;4.67;;
5833;SDS011;2943;48.012;10.968;2023-02-26T02:21:06;6.17;;;4.50;;
5833;SDS011;2943;48.012;10.968;2023-02-26T02:23:49;4.10;;;3.70;;
5833;SDS011;2943;48.012;10.968;2023-02-26T02:32:30;4.30;;;4.00;;
5833;SDS011;2943;48.012;10.968;2023-02-26T02:35:03;3.93;;;3.53;;
5833;SDS011;2943;48.012;10.968;2023-02-26T02:37:37;5.33;;;3.57;;
5833;SDS011;2943;48.012;10.968;2023-02-26T02:40:07;5.00;;;3.33;;
5833;SDS011;2943;48.012;10.968;2023-02-26T02:42:38;5.80;;;3.80;;
5833;SDS011;2943;48.012;10.968;2023-02-26T02:45:10;4.33;;;3.43;;
5833;SDS011;2943;48.012;10.968;2023-02-26T02:47:42;7.77;;;4.97;;
5833;SDS011;2943;48.012;10.968;2023-02-26T02:50:16;6.93;;;4.03;;
5833;SDS011;2943;48.012;10.968;2023-02-26T02:52:48;4.60;;;2.93;;
5833;SDS011;2943;48.012;10.968;2023-02-26T02:55:19;6.70;;;4.03;;
5833;SDS011;2943;48.012;10.968;2023-02-26T02:57:49;6.77;;;3.30;;
5833;SDS011;2943;48.012;10.968;2023-02-26T03:00:21;6.63;;;4.13;;
5833;SDS011;2943;48.012;10.968;2023-02-26T03:02:52;6.17;;;3.80;;
5833;SDS011;2943;48.012;10.968;2023-02-26T03:05:25;6.73;;;3.70;;
5833;SDS011;2943;48.012;10.968;2023-02-26T03:07:53;4.27;;;3.20;;
5833;SDS011;2943;48.012;10.968;2023-02-26T03:10:22;4.13;;;3.33;;
5833;SDS011;2943;48.012;10.968;2023-02-26T03:12:49;6.10;;;4.00;;
5833;SDS011;2943;48.012;10.968;2023-02-26T03:15:17;4.00;;;3.13;;
5833;SDS011;2943;48.012;10.968;2023-02-26T03:17:55;3.60;;;3.17;;
5833;SDS011;2943;48.012;10.968;2023-02-26T03:20:26;4.90;;;3.93;;
5833;SDS011;2943;48.012;10.968;2023-02-26T03:23:02;4.67;;;3.97;;
5833;SDS011;2943;48.012;10.968;2023-02-26T03:25:37;3.80;;;3.40;;
5833;SDS011;2943;48.012;10.968;2023-02-26T03:28:11;5.73;;;3.70;;
5833;SDS011;2943;48.012;10.968;2023-02-26T03:30:46;5.67;;;3.97;;
5833;SDS011;2943;48.012;10.968;2023-02-26T03:33:19;5.70;;;4.40;;
5833;SDS011;2943;48.012;10.968;2023-02-26T03:35:51;3.90;;;3.50;;
5833;SDS011;2943;48.012;10.968;2023-02-26T03:38:23;8.23;;;3.70;;
5833;SDS011;2943;48.012;10.968;2023-02-26T03:40:56;6.20;;;3.20;;
5833;SDS011;2943;48.012;10.968;2023-02-26T03:43:28;3.90;;;3.50;;
5833;SDS011;2943;48.012;10.968;2023-02-26T03:45:59;8.23;;;4.10;;
5833;SDS011;2943;48.012;10.968;2023-02-26T03:48:30;4.70;;;3.47;;
5833;SDS011;2943;48.012;10.968;2023-02-26T03:51:01;4.77;;;3.57;;
5833;SDS011;2943;48.012;10.968;2023-02-26T03:53:31;7.00;;;3.87;;
5833;SDS011;2943;48.012;10.968;2023-02-26T03:56:05;7.70;;;4.30;;
5833;SDS011;2943;48.012;10.968;2023-02-26T03:58:37;7.77;;;4.57;;
5833;SDS011;2943;48.012;10.968;2023-02-26T04:01:05;5.53;;;4.43;;
5833;SDS011;2943;48.012;10.968;2023-02-26T04:03:36;5.33;;;4.57;;
5833;SDS011;2943;48.012;10.968;2023-02-26T04:06:08;5.90;;;4.30;;
5833;SDS011;2943;48.012;10.968;2023-02-26T04:08:35;4.33;;;3.90;;
5833;SDS011;2943;48.012;10.968;2023-02-26T04:11:04;5.00;;;3.93;;
5833;SDS011;2943;48.012;10.968;2023-02-26T04:13:47;4.38;;;3.97;;
5833;SDS011;2943;48.012;10.968;2023-02-26T04:16:14;5.17;;;4.50;;
5833;SDS011;2943;48.012;10.968;2023-02-26T04:18:43;5.37;;;3.63;;
5833;SDS011;2943;48.012;10.968;2023-02-26T04:21:10;3.83;;;3.53;;
5833;SDS011;2943;48.012;10.968;2023-02-26T04:23:38;10.90;;;3.97;;
5833;SDS011;2943;48.012;10.968;2023-02-26T04:26:05;10.00;;;4.47;;
5833;SDS011;2943;48.012;10.968;2023-02-26T04:28:32;7.30;;;4.73;;
5833;SDS011;2943;48.012;10.968;2023-02-26T04:31:01;8.30;;;4.17;;
5833;SDS011;2943;48.012;10.968;2023-02-26T04:33:28;6.30;;;3.70;;
5833;SDS011;2943;48.012;10.968;2023-02-26T04:35:57;5.23;;;3.40;;
5833;SDS011;2943;48.012;10.968;2023-02-26T04:38:23;4.07;;;3.53;;
5833;SDS011;2943;48.012;10.968;2023-02-26T04:40:50;3.80;;;3.40;;
5833;SDS011;2943;48.012;10.968;2023-02-26T04:43:17;4.13;;;3.30;;
5833;SDS011;2943;48.012;10.968;2023-02-26T04:45:44;3.77;;;3.30;;
5833;SDS011;2943;48.012;10.968;2023-02-26T04:48:11;5.00;;;4.13;;
5833;SDS011;2943;48.012;10.968;2023-02-26T04:50:38;6.60;;;3.60;;
5833;SDS011;2943;48.012;10.968;2023-02-26T04:53:06;6.40;;;3.10;;
5833;SDS011;2943;48.012;10.968;2023-02-26T04:55:33;9.13;;;4.13;;
5833;SDS011;2943;48.012;10.968;2023-02-26T04:58:01;4.17;;;3.30;;
5833;SDS011;2943;48.012;10.968;2023-02-26T05:00:28;5.13;;;3.20;;
5833;SDS011;2943;48.012;10.968;2023-02-26T05:02:55;5.60;;;3.07;;
5833;SDS011;2943;48.012;10.968;2023-02-26T05:05:22;13.23;;;3.40;;
5833;SDS011;2943;48.012;10.968;2023-02-26T05:07:48;3.90;;;3.50;;
5833;SDS011;2943;48.012;10.968;2023-02-26T05:10:19;7.50;;;2.90;;
5833;SDS011;2943;48.012;10.968;2023-02-26T05:12:46;4.77;;;3.10;;
5833;SDS011;2943;48.012;10.968;2023-02-26T05:15:13;3.43;;;3.10;;
5833;SDS011;2943;48.012;10.968;2023-02-26T05:17:40;9.33;;;3.80;;
5833;SDS011;2943;48.012;10.968;2023-02-26T05:20:07;4.53;;;3.57;;
5833;SDS011;2943;48.012;10.968;2023-02-26T05:22:35;3.10;;;2.90;;
5833;SDS011;2943;48.012;10.968;2023-02-26T05:25:02;5.10;;;3.40;;
5833;SDS011;2943;48.012;10.968;2023-02-26T05:27:31;6.00;;;3.53;;
5833;SDS011;2943;48.012;10.968;2023-02-26T05:29:58;4.30;;;3.17;;
5833;SDS011;2943;48.012;10.968;2023-02-26T05:32:25;3.13;;;2.90;;
5833;SDS011;2943;48.012;10.968;2023-02-26T05:34:52;4.87;;;3.10;;
5833;SDS011;2943;48.012;10.968;2023-02-26T05:37:19;7.87;;;3.70;;
5833;SDS011;2943;48.012;10.968;2023-02-26T05:39:46;5.50;;;3.50;;
5833;SDS011;2943;48.012;10.968;2023-02-26T05:42:13;3.30;;;3.00;;
5833;SDS011;2943;48.012;10.968;2023-02-26T05:44:41;6.13;;;3.23;;
5833;SDS011;2943;48.012;10.968;2023-02-26T05:47:08;3.77;;;3.33;;
5833;SDS011;2943;48.012;10.968;2023-02-26T05:49:34;4.80;;;4.10;;
5833;SDS011;2943;48.012;10.968;2023-02-26T05:52:01;4.80;;;3.70;;
5833;SDS011;2943;48.012;10.968;2023-02-26T05:54:28;4.60;;;3.80;;
5833;SDS011;2943;48.012;10.968;2023-02-26T05:56:55;6.23;;;3.60;;
5833;SDS011;2943;48.012;10.968;2023-02-26T05:59:22;6.47;;;3.40;;
5833;SDS011;2943;48.012;10.968;2023-02-26T06:01:50;6.20;;;3.67;;
5833;SDS011;2943;48.012;10.968;2023-02-26T06:04:17;4.73;;;3.20;;
5833;SDS011;2943;48.012;10.968;2023-02-26T06:06:44;5.70;;;4.00;;
5833;SDS011;2943;48.012;10.968;2023-02-26T06:09:11;4.67;;;4.17;;
5833;SDS011;2943;48.012;10.968;2023-02-26T06:11:37;9.63;;;3.97;;
5833;SDS011;2943;48.012;10.968;2023-02-26T06:14:04;10.37;;;5.03;;
5833;SDS011;2943;48.012;10.968;2023-02-26T06:16:31;8.57;;;4.00;;
5833;SDS011;2943;48.012;10.968;2023-02-26T06:19:01;4.63;;;3.70;;
5833;SDS011;2943;48.012;10.968;2023-02-26T06:21:28;5.33;;;3.80;;
5833;SDS011;2943;48.012;10.968;2023-02-26T06:23:55;4.40;;;3.70;;
5833;SDS011;2943;48.012;10.968;2023-02-26T06:26:22;3.60;;;3.30;;
5833;SDS011;2943;48.012;10.968;2023-02-26T06:28:49;4.60;;;3.37;;
5833;SDS011;2943;48.012;10.968;2023-02-26T06:31:15;7.93;;;3.50;;
5833;SDS011;2943;48.012;10.968;2023-02-26T06:33:45;11.20;;;3.57;;
5833;SDS011;2943;48.012;10.968;2023-02-26T06:36:13;9.53;;;3.93;;
5833;SDS011;2943;48.012;10.968;2023-02-26T06:38:41;8.50;;;3.53;;
5833;SDS011;2943;48.012;10.968;2023-02-26T06:41:09;4.53;;;3.77;;
5833;SDS011;2943;48.012;10.968;2023-02-26T06:43:36;4.77;;;3.07;;
5833;SDS011;2943;48.012;10.968;2023-02-26T06:46:03;4.23;;;3.73;;
5833;SDS011;2943;48.012;10.968;2023-02-26T06:48:30;3.93;;;3.53;;
5833;SDS011;2943;48.012;10.968;2023-02-26T06:50:57;11.00;;;3.80;;
5833;SDS011;2943;48.012;10.968;2023-02-26T06:53:25;3.80;;;3.50;;
5833;SDS011;2943;48.012;10.968;2023-02-26T06:55:52;6.80;;;3.20;;
5833;SDS011;2943;48.012;10.968;2023-02-26T06:58:19;8.53;;;4.00;;
5833;SDS011;2943;48.012;10.968;2023-02-26T07:00:46;11.37;;;4.43;;
5833;SDS011;2943;48.012;10.968;2023-02-26T07:03:13;7.43;;;3.80;;
5833;SDS011;2943;48.012;10.968;2023-02-26T07:05:41;5.30;;;3.77;;
5833;SDS011;2943;48.012;10.968;2023-02-26T07:08:10;4.30;;;3.70;;
5833;SDS011;2943;48.012;10.968;2023-02-26T07:10:39;4.70;;;3.73;;
5833;SDS011;2943;48.012;10.968;2023-02-26T07:13:06;6.60;;;4.00;;
5833;SDS011;2943;48.012;10.968;2023-02-26T07:15:33;10.70;;;4.50;;
5833;SDS011;2943;48.012;10.968;2023-02-26T07:18:00;7.60;;;3.40;;
5833;SDS011;2943;48.012;10.968;2023-02-26T07:20:27;3.30;;;3.00;;
5833;SDS011;2943;48.012;10.968;2023-02-26T07:22:54;5.70;;;3.40;;
5833;SDS011;2943;48.012;10.968;2023-02-26T07:25:21;3.57;;;3.27;;
5833;SDS011;2943;48.012;10.968;2023-02-26T07:27:49;3.03;;;2.83;;
5833;SDS011;2943;48.012;10.968;2023-02-26T07:30:17;5.60;;;3.00;;
5833;SDS011;2943;48.012;10.968;2023-02-26T07:32:44;3.93;;;3.53;;
5833;SDS011;2943;48.012;10.968;2023-02-26T07:35:13;5.90;;;3.40;;
5833;SDS011;2943;48.012;10.968;2023-02-26T07:37:40;9.10;;;3.90;;
5833;SDS011;2943;48.012;10.968;2023-02-26T07:40:08;4.63;;;3.73;;
5833;SDS011;2943;48.012;10.968;2023-02-26T07:42:35;8.07;;;3.83;;
5833;SDS011;2943;48.012;10.968;2023-02-26T07:45:05;3.97;;;3.20;;
5833;SDS011;2943;48.012;10.968;2023-02-26T07:47:33;6.70;;;4.17;;
5833;SDS011;2943;48.012;10.968;2023-02-26T07:50:00;7.20;;;3.87;;
5833;SDS011;2943;48.012;10.968;2023-02-26T07:52:26;4.53;;;3.30;;
5833;SDS011;2943;48.012;10.968;2023-02-26T07:54:56;4.37;;;3.47;;
5833;SDS011;2943;48.012;10.968;2023-02-26T07:57:23;7.23;;;3.43;;
5833;SDS011;2943;48.012;10.968;2023-02-26T07:59:50;6.63;;;3.83;;
5833;SDS011;2943;48.012;10.968;2023-02-26T08:02:18;5.47;;;3.40;;
5833;SDS011;2943;48.012;10.968;2023-02-26T08:04:47;6.70;;;4.13;;
5833;SDS011;2943;48.012;10.968;2023-02-26T08:07:14;5.53;;;3.80;;
5833;SDS011;2943;48.012;10.968;2023-02-26T08:09:41;8.87;;;3.70;;
5833;SDS011;2943;48.012;10.968;2023-02-26T08:12:08;5.40;;;3.43;;
5833;SDS011;2943;48.012;10.968;2023-02-26T08:14:35;5.50;;;3.30;;
5833;SDS011;2943;48.012;10.968;2023-02-26T08:17:01;6.07;;;4.43;;
5833;SDS011;2943;48.012;10.968;2023-02-26T08:19:30;10.20;;;4.00;;
5833;SDS011;2943;48.012;10.968;2023-02-26T08:21:56;6.40;;;4.50;;
5833;SDS011;2943;48.012;10.968;2023-02-26T08:24:23;4.77;;;3.40;;
5833;SDS011;2943;48.012;10.968;2023-02-26T08:26:50;8.10;;;4.57;;
5833;SDS011;2943;48.012;10.968;2023-02-26T08:29:16;7.37;;;4.03;;
5833;SDS011;2943;48.012;10.968;2023-02-26T08:31:45;4.57;;;4.17;;
5833;SDS011;2943;48.012;10.968;2023-02-26T08:34:12;9.50;;;5.33;;
5833;SDS011;2943;48.012;10.968;2023-02-26T08:36:40;5.70;;;4.20;;
5833;SDS011;2943;48.012;10.968;2023-02-26T08:39:07;9.47;;;4.33;;
5833;SDS011;2943;48.012;10.968;2023-02-26T08:41:34;5.50;;;4.33;;
5833;SDS011;2943;48.012;10.968;2023-02-26T08:44:01;5.80;;;4.40;;
5833;SDS011;2943;48.012;10.968;2023-02-26T08:46:28;9.00;;;4.37;;
5833;SDS011;2943;48.012;10.968;2023-02-26T08:48:55;7.80;;;3.70;;
5833;SDS011;2943;48.012;10.968;2023-02-26T08:51:22;6.90;;;3.80;;
5833;SDS011;2943;48.012;10.968;2023-02-26T08:53:50;7.30;;;3.83;;
5833;SDS011;2943;48.012;10.968;2023-02-26T08:56:17;4.20;;;3.80;;
5833;SDS011;2943;48.012;10.968;2023-02-26T08:58:44;4.90;;;4.40;;
5833;SDS011;2943;48.012;10.968;2023-02-26T09:01:14;9.05;;;4.28;;
5833;SDS011;2943;48.012;10.968;2023-02-26T09:03:40;6.90;;;4.10;;
5833;SDS011;2943;48.012;10.968;2023-02-26T09:06:07;3.67;;;3.37;;
5833;SDS011;2943;48.012;10.968;2023-02-26T09:08:34;4.60;;;3.53;;
5833;SDS011;2943;48.012;10.968;2023-02-26T09:11:02;4.53;;;3.33;;
5833;SDS011;2943;48.012;10.968;2023-02-26T09:13:29;3.90;;;3.30;;
5833;SDS011;2943;48.012;10.968;2023-02-26T09:15:56;5.67;;;3.77;;
5833;SDS011;2943;48.012;10.968;2023-02-26T09:18:23;4.70;;;3.80;;
5833;SDS011;2943;48.012;10.968;2023-02-26T09:20:50;3.90;;;3.50;;
5833;SDS011;2943;48.012;10.968;2023-02-26T09:23:17;6.07;;;4.17;;
5833;SDS011;2943;48.012;10.968;2023-02-26T09:25:44;4.47;;;4.07;;
5833;SDS011;2943;48.012;10.968;2023-02-26T09:28:15;10.40;;;5.23;;
5833;SDS011;2943;48.012;10.968;2023-02-26T09:30:42;5.57;;;3.30;;
5833;SDS011;2943;48.012;10.968;2023-02-26T09:33:08;8.23;;;4.03;;
5833;SDS011;2943;48.012;10.968;2023-02-26T09:35:35;4.17;;;3.70;;
5833;SDS011;2943;48.012;10.968;2023-02-26T09:38:02;6.63;;;3.77;;
5833;SDS011;2943;48.012;10.968;2023-02-26T09:40:31;7.40;;;3.60;;
5833;SDS011;2943;48.012;10.968;2023-02-26T09:43:24;9.40;;;4.60;;
5833;SDS011;2943;48.012;10.968;2023-02-26T09:46:02;5.90;;;4.40;;
5833;SDS011;2943;48.012;10.968;2023-02-26T09:48:35;4.93;;;3.57;;
5833;SDS011;2943;48.012;10.968;2023-02-26T09:51:03;6.47;;;3.50;;
5833;SDS011;2943;48.012;10.968;2023-02-26T09:53:36;5.60;;;3.57;;
5833;SDS011;2943;48.012;10.968;2023-02-26T09:56:06;6.03;;;3.87;;
5833;SDS011;2943;48.012;10.968;2023-02-26T09:58:39;4.27;;;3.50;;
5833;SDS011;2943;48.012;10.968;2023-02-26T10:01:09;4.23;;;3.73;;
5833;SDS011;2943;48.012;10.968;2023-02-26T10:03:44;4.33;;;3.47;;
5833;SDS011;2943;48.012;10.968;2023-02-26T10:06:22;5.67;;;3.60;;
5833;SDS011;2943;48.012;10.968;2023-02-26T10:08:55;4.73;;;4.30;;
5833;SDS011;2943;48.012;10.968;2023-02-26T10:11:34;5.53;;;4.07;;
5833;SDS011;2943;48.012;10.968;2023-02-26T10:14:10;4.97;;;4.40;;
5833;SDS011;2943;48.012;10.968;2023-02-26T10:16:42;4.40;;;3.77;;
5833;SDS011;2943;48.012;10.968;2023-02-26T10:19:13;5.20;;;4.70;;
5833;SDS011;2943;48.012;10.968;2023-02-26T10:21:43;4.70;;;3.87;;
5833;SDS011;2943;48.012;10.968;2023-02-26T10:24:18;6.90;;;3.60;;
5833;SDS011;2943;48.012;10.968;2023-02-26T10:26:50;4.37;;;3.97;;
5833;SDS011;2943;48.012;10.968;2023-02-26T10:29:22;4.53;;;3.73;;
5833;SDS011;2943;48.012;10.968;2023-02-26T10:32:00;4.33;;;3.93;;
5833;SDS011;2943;48.012;10.968;2023-02-26T10:34:34;8.20;;;3.63;;
5833;SDS011;2943;48.012;10.968;2023-02-26T10:37:07;4.60;;;4.10;;
5833;SDS011;2943;48.012;10.968;2023-02-26T10:39:43;4.50;;;3.70;;
5833;SDS011;2943;48.012;10.968;2023-02-26T10:42:16;6.30;;;5.10;;
5833;SDS011;2943;48.012;10.968;2023-02-26T10:44:49;7.90;;;5.70;;
5833;SDS011;2943;48.012;10.968;2023-02-26T10:47:26;4.10;;;3.70;;
5833;SDS011;2943;48.012;10.968;2023-02-26T10:50:00;5.10;;;4.10;;
5833;SDS011;2943;48.012;10.968;2023-02-26T10:52:30;4.60;;;4.07;;
5833;SDS011;2943;48.012;10.968;2023-02-26T10:55:02;5.33;;;4.10;;
5833;SDS011;2943;48.012;10.968;2023-02-26T10:57:33;8.10;;;4.43;;
5833;SDS011;2943;48.012;10.968;2023-02-26T11:00:05;3.90;;;3.60;;
5833;SDS011;2943;48.012;10.968;2023-02-26T11:02:40;4.50;;;4.10;;
5833;SDS011;2943;48.012;10.968;2023-02-26T11:05:12;4.33;;;3.93;;
5833;SDS011;2943;48.012;10.968;2023-02-26T11:07:42;5.87;;;4.20;;
5833;SDS011;2943;48.012;10.968;2023-02-26T11:10:13;7.40;;;4.70;;
5833;SDS011;2943;48.012;10.968;2023-02-26T11:12:42;4.03;;;2.90;;
5833;SDS011;2943;48.012;10.968;2023-02-26T11:15:15;4.93;;;4.43;;
5833;SDS011;2943;48.012;10.968;2023-02-26T11:17:44;5.20;;;4.50;;
5833;SDS011;2943;48.012;10.968;2023-02-26T11:20:15;9.13;;;4.80;;
5833;SDS011;2943;48.012;10.968;2023-02-26T11:22:45;7.17;;;5.13;;
5833;SDS011;2943;48.012;10.968;2023-02-26T11:25:17;6.00;;;4.50;;
5833;SDS011;2943;48.012;10.968;2023-02-26T11:27:48;5.47;;;4.60;;
5833;SDS011;2943;48.012;10.968;2023-02-26T11:30:21;5.30;;;4.80;;
5833;SDS011;2943;48.012;10.968;2023-02-26T11:32:53;5.63;;;5.00;;
5833;SDS011;2943;48.012;10.968;2023-02-26T11:35:23;6.90;;;5.63;;
5833;SDS011;2943;48.012;10.968;2023-02-26T11:37:52;9.70;;;4.60;;
5833;SDS011;2943;48.012;10.968;2023-02-26T11:40:22;7.60;;;5.30;;
5833;SDS011;2943;48.012;10.968;2023-02-26T11:42:52;6.80;;;5.57;;
5833;SDS011;2943;48.012;10.968;2023-02-26T11:45:22;4.50;;;4.10;;
5833;SDS011;2943;48.012;10.968;2023-02-26T11:48:02;6.60;;;5.40;;
5833;SDS011;2943;48.012;10.968;2023-02-26T11:50:32;5.30;;;4.80;;
5833;SDS011;2943;48.012;10.968;2023-02-26T11:53:09;5.67;;;5.00;;
5833;SDS011;2943;48.012;10.968;2023-02-26T11:55:43;7.70;;;5.07;;
5833;SDS011;2943;48.012;10.968;2023-02-26T11:58:15;6.67;;;5.70;;
5833;SDS011;2943;48.012;10.968;2023-02-26T12:00:45;7.47;;;6.33;;
5833;SDS011;2943;48.012;10.968;2023-02-26T12:03:14;6.90;;;5.20;;
5833;SDS011;2943;48.012;10.968;2023-02-26T12:05:45;5.20;;;4.70;;
5833;SDS011;2943;48.012;10.968;2023-02-26T12:08:15;7.53;;;5.30;;
5833;SDS011;2943;48.012;10.968;2023-02-26T12:10:46;7.00;;;4.83;;
5833;SDS011;2943;48.012;10.968;2023-02-26T12:13:21;5.73;;;5.13;;
5833;SDS011;2943;48.012;10.968;2023-02-26T12:15:57;6.60;;;5.17;;
5833;SDS011;2943;48.012;10.968;2023-02-26T12:18:31;5.77;;;4.70;;
5833;SDS011;2943;48.012;10.968;2023-02-26T12:21:17;4.90;;;4.33;;
5833;SDS011;2943;48.012;10.968;2023-02-26T12:24:00;6.23;;;5.30;;
5833;SDS011;2943;48.012;10.968;2023-02-26T12:26:48;5.07;;;4.57;;
5833;SDS011;2943;48.012;10.968;2023-02-26T12:29:29;5.10;;;4.60;;
5833;SDS011;2943;48.012;10.968;2023-02-26T12:32:16;20.30;;;10.80;;
5833;SDS011;2943;48.012;10.968;2023-02-26T12:35:20;10.67;;;8.30;;
5833;SDS011;2943;48.012;10.968;2023-02-26T12:38:06;5.63;;;5.10;;
5833;SDS011;2943;48.012;10.968;2023-02-26T12:40:55;4.78;;;4.38;;
5833;SDS011;2943;48.012;10.968;2023-02-26T12:43:31;6.00;;;5.40;;
5833;SDS011;2943;48.012;10.968;2023-02-26T12:46:07;5.70;;;5.07;;
5833;SDS011;2943;48.012;10.968;2023-02-26T12:48:52;6.60;;;4.97;;
5833;SDS011;2943;48.012;10.968;2023-02-26T12:51:37;6.00;;;4.70;;
5833;SDS011;2943;48.012;10.968;2023-02-26T12:54:22;5.83;;;5.10;;
5833;SDS011;2943;48.012;10.968;2023-02-26T13:00:14;4.67;;;4.27;;
5833;SDS011;2943;48.012;10.968;2023-02-26T13:03:11;5.70;;;5.03;;
5833;SDS011;2943;48.012;10.968;2023-02-26T13:06:04;7.63;;;5.87;;
5833;SDS011;2943;48.012;10.968;2023-02-26T13:08:46;5.80;;;5.20;;
5833;SDS011;2943;48.012;10.968;2023-02-26T13:11:20;6.67;;;5.97;;
5833;SDS011;2943;48.012;10.968;2023-02-26T13:13:57;11.63;;;7.00;;
5833;SDS011;2943;48.012;10.968;2023-02-26T13:16:47;7.77;;;5.97;;
5833;SDS011;2943;48.012;10.968;2023-02-26T13:19:22;9.03;;;8.13;;
5833;SDS011;2943;48.012;10.968;2023-02-26T13:21:58;6.83;;;6.10;;
5833;SDS011;2943;48.012;10.968;2023-02-26T13:24:30;7.13;;;6.27;;
5833;SDS011;2943;48.012;10.968;2023-02-26T13:27:02;27.70;;;12.77;;
5833;SDS011;2943;48.012;10.968;2023-02-26T13:29:33;10.60;;;7.43;;
5833;SDS011;2943;48.012;10.968;2023-02-26T13:32:04;8.57;;;6.80;;
5833;SDS011;2943;48.012;10.968;2023-02-26T13:34:38;12.27;;;8.77;;
5833;SDS011;2943;48.012;10.968;2023-02-26T13:37:16;7.30;;;5.80;;
5833;SDS011;2943;48.012;10.968;2023-02-26T13:39:49;5.87;;;5.37;;
5833;SDS011;2943;48.012;10.968;2023-02-26T13:42:28;5.10;;;4.70;;
5833;SDS011;2943;48.012;10.968;2023-02-26T13:45:02;6.37;;;3.87;;
5833;SDS011;2943;48.012;10.968;2023-02-26T13:47:47;5.03;;;4.17;;
5833;SDS011;2943;48.012;10.968;2023-02-26T13:50:26;6.87;;;4.07;;
5833;SDS011;2943;48.012;10.968;2023-02-26T13:53:03;9.33;;;6.20;;
5833;SDS011;2943;48.012;10.968;2023-02-26T13:55:53;5.03;;;4.63;;
5833;SDS011;2943;48.012;10.968;2023-02-26T13:58:33;4.30;;;3.90;;
5833;SDS011;2943;48.012;10.968;2023-02-26T14:01:06;6.77;;;4.60;;
5833;SDS011;2943;48.012;10.968;2023-02-26T14:03:35;4.67;;;4.27;;
5833;SDS011;2943;48.012;10.968;2023-02-26T14:06:07;7.03;;;5.03;;
5833;SDS011;2943;48.012;10.968;2023-02-26T14:08:50;4.87;;;4.17;;
5833;SDS011;2943;48.012;10.968;2023-02-26T14:11:26;5.93;;;4.67;;
5833;SDS011;2943;48.012;10.968;2023-02-26T14:14:09;6.53;;;4.80;;
5833;SDS011;2943;48.012;10.968;2023-02-26T14:16:42;5.63;;;4.20;;
5833;SDS011;2943;48.012;10.968;2023-02-26T14:19:25;5.17;;;4.67;;
5833;SDS011;2943;48.012;10.968;2023-02-26T14:21:53;7.37;;;5.10;;
5833;SDS011;2943;48.012;10.968;2023-02-26T14:24:24;6.00;;;4.80;;
5833;SDS011;2943;48.012;10.968;2023-02-26T14:29:56;5.40;;;4.33;;
5833;SDS011;2943;48.012;10.968;2023-02-26T14:32:26;5.63;;;4.37;;
5833;SDS011;2943;48.012;10.968;2023-02-26T14:34:57;4.00;;;3.67;;
5833;SDS011;2943;48.012;10.968;2023-02-26T14:37:28;4.40;;;4.00;;
5833;SDS011;2943;48.012;10.968;2023-02-26T14:39:57;5.10;;;3.67;;
5833;SDS011;2943;48.012;10.968;2023-02-26T14:42:34;3.87;;;3.50;;
5833;SDS011;2943;48.012;10.968;2023-02-26T14:45:07;6.10;;;3.60;;
5833;SDS011;2943;48.012;10.968;2023-02-26T14:47:43;4.50;;;4.10;;
5833;SDS011;2943;48.012;10.968;2023-02-26T14:50:12;4.33;;;3.93;;
5833;SDS011;2943;48.012;10.968;2023-02-26T14:52:50;5.50;;;4.10;;
5833;SDS011;2943;48.012;10.968;2023-02-26T14:55:47;4.27;;;3.87;;
5833;SDS011;2943;48.012;10.968;2023-02-26T14:58:38;5.93;;;4.30;;
5833;SDS011;2943;48.012;10.968;2023-02-26T15:01:16;6.00;;;4.70;;
5833;SDS011;2943;48.012;10.968;2023-02-26T15:04:05;7.10;;;5.67;;
5833;SDS011;2943;48.012;10.968;2023-02-26T15:07:00;6.17;;;4.80;;
5833;SDS011;2943;48.012;10.968;2023-02-26T15:09:48;9.30;;;5.90;;
5833;SDS011;2943;48.012;10.968;2023-02-26T15:12:28;5.23;;;4.73;;
5833;SDS011;2943;48.012;10.968;2023-02-26T15:15:14;6.60;;;5.00;;
5833;SDS011;2943;48.012;10.968;2023-02-26T15:17:56;6.13;;;5.33;;
5833;SDS011;2943;48.012;10.968;2023-02-26T15:20:32;7.33;;;5.70;;
5833;SDS011;2943;48.012;10.968;2023-02-26T15:26:03;6.73;;;5.70;;
5833;SDS011;2943;48.012;10.968;2023-02-26T15:28:34;6.93;;;4.97;;
5833;SDS011;2943;48.012;10.968;2023-02-26T15:31:05;9.13;;;5.50;;
5833;SDS011;2943;48.012;10.968;2023-02-26T15:33:35;45.20;;;18.30;;
5833;SDS011;2943;48.012;10.968;2023-02-26T15:36:04;33.00;;;15.50;;
5833;SDS011;2943;48.012;10.968;2023-02-26T15:38:41;19.93;;;9.97;;
5833;SDS011;2943;48.012;10.968;2023-02-26T15:41:13;17.10;;;8.60;;